createdAt,value
2019-04-10T00:00:00.889Z,2.3
2019-04-10T00:10:00.929Z,2.4
2019-04-10T00:15:00.997Z,2.3
2019-04-10T00:25:00.958Z,2.0
2019-04-10T00:30:00.888Z,2.1
2019-04-10T00:35:01.017Z,1.9
2019-04-10T00:45:01.996Z,1.8
2019-04-10T00:55:01.495Z,1.9
2019-04-10T01:00:00.988Z,2.9
2019-04-10T01:05:00.958Z,3.6
2019-04-10T01:10:01.951Z,4.0
2019-04-10T01:15:01.011Z,4.2
2019-04-10T01:20:00.869Z,4.1
2019-04-10T01:25:02.013Z,3.1
2019-04-10T01:30:02.212Z,2.5
2019-04-10T01:35:00.969Z,2.0
2019-04-10T01:40:00.888Z,2.3
2019-04-10T01:45:01.035Z,2.1
2019-04-10T01:50:00.884Z,2.0
2019-04-10T02:00:01.045Z,2.0
2019-04-10T02:05:00.979Z,1.8
2019-04-10T02:15:00.905Z,1.7
2019-04-10T02:20:00.925Z,1.6
2019-04-10T02:25:00.921Z,1.7
2019-04-10T02:30:01.226Z,1.6
2019-04-10T02:35:01.265Z,1.7
2019-04-10T02:40:03.405Z,2.0
2019-04-10T02:45:02.201Z,1.9
2019-04-10T02:55:01.979Z,2.2
2019-04-10T03:00:02.856Z,2.1
2019-04-10T03:05:01.391Z,1.8
2019-04-10T03:10:12.482Z,2.0
2019-04-10T03:15:01.182Z,2.4
2019-04-10T03:20:00.894Z,2.6
2019-04-10T03:30:02.925Z,2.5
2019-04-10T03:40:00.996Z,2.1
2019-04-10T03:45:00.930Z,1.8
2019-04-10T03:50:00.940Z,2.0
2019-04-10T04:00:01.504Z,2.4
2019-04-10T04:05:00.999Z,2.3
2019-04-10T04:10:00.934Z,2.7
2019-04-10T04:15:02.102Z,2.8
2019-04-10T04:20:00.935Z,2.9
2019-04-10T04:25:01.058Z,2.8
2019-04-10T04:30:00.937Z,2.9
2019-04-10T04:35:02.329Z,2.8
2019-04-10T04:45:00.987Z,2.8
2019-04-10T04:55:01.913Z,2.9
2019-04-10T05:00:01.130Z,3.2
2019-04-10T05:05:01.022Z,3.3
2019-04-10T05:10:02.038Z,3.2
2019-04-10T05:15:01.090Z,3.5
2019-04-10T05:20:00.970Z,3.9
2019-04-10T05:25:01.034Z,3.8
2019-04-10T05:30:01.976Z,3.7
2019-04-10T05:40:01.501Z,3.5
2019-04-10T05:45:00.974Z,3.0
2019-04-10T05:50:01.995Z,2.7
2019-04-10T05:55:02.277Z,2.6
2019-04-10T06:00:00.965Z,2.6
2019-04-10T06:05:02.220Z,2.4
2019-04-10T06:10:04.953Z,2.5
2019-04-10T06:15:02.323Z,2.4
2019-04-10T06:20:00.968Z,2.5
2019-04-10T06:30:06.064Z,2.8
2019-04-10T06:35:01.882Z,2.9
2019-04-10T06:40:08.586Z,3.0
2019-04-10T06:45:01.038Z,2.9
2019-04-10T06:50:00.977Z,3.1
2019-04-10T06:55:01.156Z,3.2
2019-04-10T07:00:02.261Z,3.3
2019-04-10T07:05:05.596Z,3.6
2019-04-10T07:10:02.218Z,3.7
2019-04-10T07:15:02.186Z,3.7
2019-04-10T07:25:01.101Z,3.8
2019-04-10T07:30:01.579Z,3.9
2019-04-10T07:35:01.590Z,4.2
2019-04-10T07:40:03.263Z,4.4
2019-04-10T07:45:01.061Z,4.6
2019-04-10T07:55:01.058Z,4.2
2019-04-10T08:00:01.174Z,4.1
2019-04-10T08:05:02.275Z,4.3
2019-04-10T08:10:01.416Z,4.2
2019-04-10T08:15:02.834Z,4.3
2019-04-10T08:20:06.022Z,4.7
2019-04-10T08:25:02.271Z,5.0
2019-04-10T08:30:01.224Z,5.0
2019-04-10T08:35:01.145Z,5.3
2019-04-10T08:45:01.097Z,5.3
2019-04-10T08:55:01.827Z,5.2
2019-04-10T09:00:01.030Z,4.9
2019-04-10T09:05:01.473Z,5.7
2019-04-10T09:10:01.821Z,6.0
2019-04-10T09:15:01.510Z,6.3
2019-04-10T09:20:01.042Z,6.8
2019-04-10T09:25:01.166Z,7.4
2019-04-10T09:30:01.033Z,7.1
2019-04-10T09:35:02.597Z,7.0
2019-04-10T09:40:01.044Z,7.1
2019-04-10T09:45:01.111Z,6.8
2019-04-10T10:00:01.103Z,6.8
2019-04-10T10:15:02.412Z,6.3
2019-04-10T10:20:01.784Z,6.8
2019-04-10T10:25:01.202Z,7.0
2019-04-10T10:30:02.180Z,6.9
2019-04-10T10:35:01.193Z,7.6
2019-04-10T10:40:01.302Z,7.9
2019-04-10T10:45:01.119Z,7.5
2019-04-10T10:50:01.143Z,7.6
2019-04-10T10:55:01.242Z,7.8
2019-04-10T11:00:02.126Z,7.9
2019-04-10T11:05:05.067Z,8.0
2019-04-10T11:15:02.194Z,8.2
2019-04-10T11:30:02.915Z,7.7
2019-04-10T11:35:03.151Z,7.3
2019-04-10T11:45:01.731Z,7.3
2019-04-10T11:50:03.874Z,7.1
2019-04-10T12:30:00.486Z,7.9
2019-04-10T12:35:00.592Z,8.6
2019-04-10T12:45:00.499Z,9.1
2019-04-10T12:50:00.481Z,9.3
2019-04-10T12:55:01.816Z,9.7
2019-04-10T13:00:04.003Z,10.8
2019-04-10T13:05:00.948Z,10.9
2019-04-10T13:10:00.438Z,10.7
2019-04-10T13:15:01.240Z,10.6
2019-04-10T13:25:01.602Z,9.7
2019-04-10T13:30:00.703Z,9.8
2019-04-10T13:35:03.894Z,9.7
2019-04-10T13:40:01.592Z,9.2
2019-04-10T13:45:00.714Z,9.0
2019-04-10T13:50:02.257Z,8.9
2019-04-10T13:55:01.051Z,9.0
2019-04-10T14:00:01.642Z,9.1
2019-04-10T14:05:00.511Z,9.4
2019-04-10T14:10:00.777Z,9.6
2019-04-10T14:15:01.496Z,9.5
2019-04-10T14:20:00.728Z,8.9
2019-04-10T14:25:00.967Z,8.8
2019-04-10T14:30:00.471Z,9.3
2019-04-10T14:35:01.015Z,9.1
2019-04-10T14:40:00.492Z,9.8
2019-04-10T14:45:01.371Z,11.0
2019-04-10T14:50:00.453Z,11.2
2019-04-10T14:55:00.455Z,11.1
2019-04-10T15:00:01.197Z,11.1
2019-04-10T15:05:01.573Z,11.0
2019-04-10T15:10:00.444Z,10.5
2019-04-10T15:15:01.512Z,10.6
2019-04-10T15:20:00.686Z,10.8
2019-04-10T15:25:01.474Z,10.9
2019-04-10T15:30:00.480Z,10.1
2019-04-10T15:35:00.605Z,10.0
2019-04-10T15:45:00.766Z,9.6
2019-04-10T15:50:00.504Z,10.0
2019-04-10T15:55:01.537Z,10.4
2019-04-10T16:00:00.939Z,10.1
2019-04-10T16:05:01.407Z,9.7
2019-04-10T16:10:02.386Z,9.6
2019-04-10T16:15:02.833Z,9.3
2019-04-10T16:20:00.489Z,9.0
2019-04-10T16:25:01.124Z,9.1
2019-04-10T16:30:02.997Z,9.2
2019-04-10T16:35:00.624Z,9.1
2019-04-10T16:40:04.309Z,8.6
2019-04-10T16:45:01.681Z,8.9
2019-04-10T16:50:01.373Z,9.0
2019-04-10T16:55:00.556Z,8.9
2019-04-10T17:00:00.502Z,8.8
2019-04-10T17:05:00.639Z,9.3
2019-04-10T17:10:11.352Z,8.8
2019-04-10T17:15:01.717Z,9.1
2019-04-10T17:20:00.682Z,9.2
2019-04-10T17:25:00.578Z,9.0
2019-04-10T17:30:01.214Z,8.8
2019-04-10T17:35:00.658Z,9.2
2019-04-10T17:40:01.842Z,9.0
2019-04-10T17:45:00.567Z,9.0
2019-04-10T17:50:00.528Z,9.5
2019-04-10T18:00:01.031Z,9.1
2019-04-10T18:05:00.774Z,8.9
2019-04-10T18:10:00.553Z,8.5
2019-04-10T18:15:01.857Z,7.9
2019-04-10T18:20:00.818Z,7.6
2019-04-10T18:30:00.652Z,7.2
2019-04-10T18:35:00.650Z,7.1
2019-04-10T18:40:01.022Z,7.7
2019-04-10T18:45:01.732Z,7.8
2019-04-10T18:55:00.593Z,7.3
2019-04-10T19:00:00.838Z,7.9
2019-04-10T19:05:00.681Z,7.3
2019-04-10T19:10:00.532Z,7.2
2019-04-10T19:15:00.610Z,7.0
2019-04-10T19:20:01.952Z,7.3
2019-04-10T19:25:01.112Z,7.2
2019-04-10T19:30:00.516Z,7.5
2019-04-10T19:35:00.685Z,7.3
2019-04-10T19:40:00.857Z,7.2
2019-04-10T19:45:01.609Z,7.5
2019-04-10T19:50:01.397Z,7.8
2019-04-10T19:55:00.643Z,7.3
2019-04-10T20:00:00.548Z,7.3
2019-04-10T20:05:01.103Z,7.0
2019-04-10T20:10:01.975Z,6.7
2019-04-10T20:15:00.649Z,6.0
2019-04-10T20:20:00.533Z,6.1
2019-04-10T20:25:02.017Z,5.7
2019-04-10T20:30:01.559Z,5.5
2019-04-10T20:35:00.623Z,5.6
2019-04-10T20:45:00.934Z,5.3
2019-04-10T20:55:01.464Z,5.4
2019-04-10T21:00:01.694Z,4.8
2019-04-10T21:05:05.940Z,5.1
2019-04-10T21:10:00.842Z,5.5
2019-04-10T21:15:01.344Z,5.6
2019-04-10T21:20:00.578Z,5.3
2019-04-10T21:25:00.670Z,5.1
2019-04-10T21:30:01.746Z,4.6
2019-04-10T21:35:01.996Z,4.0
2019-04-10T21:40:00.599Z,4.1
2019-04-10T21:45:01.833Z,4.8
2019-04-10T21:50:00.612Z,5.5
2019-04-10T21:55:00.775Z,5.7
2019-04-10T22:00:01.570Z,5.8
2019-04-10T22:05:00.625Z,5.6
2019-04-10T22:10:01.515Z,5.4
2019-04-10T22:15:00.682Z,4.9
2019-04-10T22:20:01.270Z,4.5
2019-04-10T22:30:00.691Z,4.3
2019-04-10T22:35:01.076Z,4.2
2019-04-10T22:40:00.911Z,4.3
2019-04-10T22:45:01.010Z,4.2
2019-04-10T22:55:01.374Z,4.3
2019-04-10T23:00:00.646Z,4.3
2019-04-10T23:05:01.641Z,4.1
2019-04-10T23:10:00.627Z,4.0
2019-04-10T23:15:00.867Z,4.0
2019-04-10T23:25:01.514Z,3.8
2019-04-10T23:30:00.634Z,3.8
2019-04-10T23:35:01.138Z,3.9
2019-04-10T23:40:00.777Z,4.0
2019-04-10T23:45:01.698Z,4.1
2019-04-10T23:55:01.717Z,4.0
